Airfield :
LOGIN :

Register | Disclaimer

   EN    FR    IT 

 










Legend :    VFR   Marginal VFR   IFR   Intensive IFR   Very Intensive IFR
Visi :
Ceiling :
>= 8 km
>= 3000ft
5 to 8 km
1000 to 3000 ft
1500m to 5 km
500 to 1000 ft
800 to 1500m
200 to 500 ft
< 800m
< 200 ft
Symbols :   Thunderstorms  Fog  Heavy snow  Heavy precipitations  Wind > 20 kt
SIGMETs :     Misc.  Thunderstorms  Icing  Turbulence  Mountain Waves  Volcanic Ashes






- Airport Elevation : 230 ft


ETHB - Buckeburg Army

CURRENT METAR :
  • 041220Z 31007KT 9999 FEW048 SCT069 22/10 Q1019 BLU+BLU+

EXPIRED METARs :
  • 041120Z 29009KT 9999 SCT046 22/09 Q1019 BLU+BLU+
  • 041020Z 31009KT 9999 FEW045 21/09 Q1019 BLU+BLU+

TAF TAF ETHB
Valid from the 04 at 05:00 until the 04 at 14:00 UTC


040402Z 0405/0414 28008KT 9999 NSW SCT030
TEMPO 0405/0408 24004KT 9999 NSW BKN020



MET'MAP, your aeronautical weather chart ! - Copyright ORBIFLY December 2007 - Disclaimer

ORBIFLY MET'MAP TEAM :

Programming & Development : Alexandra Zaïnal
Original concept : Baudouin d'Aumeries
Technical & hardware support : Manuel Goepfert
Assistance : Marc-Olivier Méhu




SOURCES & CREDITS :

   NOAA